ETHCEDVK

Guest
Details From ETHC - CELLE
To EDVK - Kassel Calden
Flight Number -
Tags generated
Created
Modified
Stats Distance 75 nm / 138 km
Max Altitude 3,600 ft / 1,097 m
Waypoints 3
Social Downloads 0
Likes 0
Share VATSIM

Download

Looking for another format? Having issues loading an existing format? Contact us
Advertisement - Login to hide

Notes

Basic altitude profile: - Ascent Rate: 2500ft/min - Ascent Speed: 250kts - Cruise Altitude: 35000ft - Cruise Speed: 420kts - Descent Rate: 1500ft/min - Descent Speed: 250kts Options: - Use NATs: yes - Use PACOTS: yes - Use low airways: yes - Use high airways: yes

Route

ETHC TOLTA EDVK

ID Type Via Altitude Latitude Longitude Leg Dist Tot Dist Heading (true) Name
O ETHC APT - 0 ft / 0 m 52.59120˚ 10.02213˚ - 0 nm - CELLE
TOLTA FIX - 3,600 ft / 1,097 m 51.68722˚ 9.51250˚ 57 nm 57 nm 199° / 199° -
O EDVK APT - 0 ft / 0 m 51.41213˚ 9.38110˚ 17 nm 74 nm 197° / 196° Kassel Calden

Altitude Profile

Advertisement - Login to hide

ETHC

Details ICAO ETHC (ZCN)
Name CELLE
Region Germany - Military
Timezone Europe/Berlin (UTC+1.0)
Stats Elevation 129 ft / 39 m (AMSL)
Location 52.591198° 10.022134°
Runways 1
Magnetic Variation 2.783° E

METAR

ETHC 121920Z 24011KT 8000 BKN008 02/01 Q1011 GRN

Decode

TAF

Not found

Departure Runways

ID Width Length Bearing (true) Bearing (mag) Surface Threshold Offset Overrun Length
08 148 ft / 45 m 5,989 ft / 1,825 m 80.71° 77.93° Asphalt 0 ft / 0 m 0 ft / 0 m
26 148 ft / 45 m 5,989 ft / 1,825 m 260.73° 257.95° Asphalt 0 ft / 0 m 994 ft / 303 m

EDVK

Details ICAO EDVK (KSF)
Name Kassel Calden
Region Germany - Civil
Timezone Europe/Berlin (UTC+1.0)
Stats Elevation 908 ft / 277 m (AMSL)
Location 51.412127° 9.381101°
Runways 3
Magnetic Variation 2.581° E

METAR

EDVK 121920Z 25006KT 9999 SCT028 00/M02 Q1012

Decode

TAF

Not found

Destination Runways

ID Width Length Bearing (true) Bearing (mag) Surface Threshold Offset Overrun Length
04 98 ft / 30 m 5,511 ft / 1,680 m 40.97° 38.39° Asphalt 184 ft / 56 m 0 ft / 0 m
04L 98 ft / 30 m 2,372 ft / 723 m 40.92° 38.34° Grass 0 ft / 0 m 0 ft / 0 m
22 98 ft / 30 m 5,511 ft / 1,680 m 220.98° 218.40° Asphalt 515 ft / 157 m 0 ft / 0 m
22R 98 ft / 30 m 2,372 ft / 723 m 220.93° 218.35° Grass 0 ft / 0 m 0 ft / 0 m
27 157 ft / 48 m 7,839 ft / 2,389 m 277.20° 274.62° Gravel 0 ft / 0 m 0 ft / 0 m
9 157 ft / 48 m 7,839 ft / 2,389 m 97.18° 94.60° Gravel 0 ft / 0 m 0 ft / 0 m

Approach Navaids

Runway Type Ident Frequency Range Bearing (true) Bearing (mag) Slope Elevation
22 Localiser KSL 108.10 MHz 18 nm / 33 km 220.99° 218.41° - 899 ft / 274 m (AMSL)